Station: Forbes  

  Atmospheric Gas Attenuation - ITU Rec 676-11   ----------------- dB/100km -----------------
Date Time Temp RH % AH g/m3 Dew Point Wind Direction Speed kph Gust kph Barometer mB Rainfall Since 9am 24GHz 47GHz 76GHz 122GHz 134GHz 241GHz
08/05 12:30 13.4 69 8.02 7.8 15 22 1023.6 0 18.4 25.5 38.1 99.8 92.1 316.2
08/05 12:20 13.7 70 8.29 8.3 15 17 1023.8 0 18.9 25.8 39.1 102.4 95.3 327.5
08/05 12:10 13.2 70 8.04 7.9 15 20 1023.9 0 18.4 25.6 38.3 100.3 92.6 318.0
08/05 12:00 13.3 72 8.32 8.4 15 22 1024.1 0 19.0 26.0 39.4 103.2 96.2 330.6
08/05 11:50 13.2 73 8.38 8.5 11 13 1024.2 0 19.1 26.1 39.7 104.0 97.1 333.8
08/05 11:40 12.7 73 8.13 8 11 17 1024.4 0 18.6 25.9 38.9 102.0 94.4 324.3
08/05 11:30 12.4 73 7.98 7.7 15 22 1024.5 0 18.3 25.7 38.5 100.8 92.8 318.6
08/05 11:20 12.5 73 8.03 7.8 15 19 1024.7 0 18.4 25.8 38.7 101.2 93.4 320.6
08/05 11:10 12.1 73 7.83 7.4 11 15 1024.8 0 18.0 25.6 38.0 99.6 91.2 312.9
08/05 11:00 11.6 75 7.8 7.3 13 19 1024.8 0 18.0 25.7 38.2 99.9 91.4 313.5
08/05 10:50 11.3 75 7.65 7 13 13 1025.1 0 17.7 25.5 37.7 98.7 89.8 307.8
08/05 10:40 10.8 76 7.51 6.7 15 17 1025.1 0 17.4 25.4 37.4 97.8 88.5 303.2
08/05 10:30 10.8 77 7.61 6.9 9 13 1025.1 0 17.6 25.6 37.8 98.9 89.8 307.9
08/05 10:20 10.5 77 7.47 6.6 11 13 1025.2 0 17.3 25.5 37.4 97.7 88.3 302.5
08/05 10:10 10.1 78 7.38 6.4 7 7 1025.3 0 17.1 25.4 37.2 97.3 87.6 299.9
08/05 10:00 9.5 78 7.1 5.9 7 11 1025.3 0 16.6 25.1 36.3 95.0 84.5 289.0
08/05 09:50 9.2 78 6.97 5.6 9 11 1025.3 0 16.3 25.0 35.9 93.9 83.1 284.0
08/05 09:40 9 78 6.88 5.4 7 9 1025.4 0 16.1 24.9 35.7 93.2 82.1 280.5
08/05 09:30 8.9 79 6.92 5.5 11 13 1025.3 0 16.2 25.0 35.9 93.7 82.7 282.7
08/05 09:20 8.7 79 6.83 5.3 11 13 1025.2 0 16.0 24.9 35.6 93.0 81.7 279.2
08/05 09:10 8.5 79 6.75 5.1 9 11 1025.3 0 15.9 24.8 35.4 92.4 80.9 276.2
08/05 09:00 8.4 79 6.7 5 9 13 1025.2 0 15.8 24.8 35.2 91.9 80.3 274.2
08/05 08:50 8.5 79 6.75 5.1 9 11 1025.2 0 15.9 24.8 35.4 92.4 80.9 276.2
08/05 08:40 8.3 79 6.66 4.9 9 11 1025.1 0 15.7 24.7 35.1 91.6 79.9 272.7
08/05 08:30 8.3 78 6.58 4.7 7 11 1025.1 0 15.5 24.6 34.8 90.8 78.8 268.9
08/05 08:20 8.4 79 6.7 5 7 9 1025.1 0 15.8 24.8 35.2 91.9 80.3 274.2
08/05 08:10 8.2 78 6.53 4.6 0 2 1024.9 0 15.4 24.6 34.6 90.3 78.2 266.9
08/05 08:00 7.9 80 6.57 4.7 6 7 1024.7 0 15.5 24.7 34.9 91.1 79.0 269.7
08/05 07:50 7.5 83 6.65 4.8 6 6 1024.6 0 15.7 24.9 35.4 92.4 80.5 274.9
08/05 07:40 6.7 86 6.54 4.5 4 6 1024.4 0 15.5 25.0 35.3 92.1 79.8 272.4
08/05 07:30 6.5 86 6.45 4.3 6 9 1024.3 0 15.3 24.9 35.0 91.4 78.8 268.8
08/05 07:20 6.1 88 6.43 4.3 7 7 1024.3 0 15.3 25.0 35.1 91.6 79.0 269.2
08/05 07:10 5.7 91 6.48 4.3 4 6 1024.3 0 15.4 25.1 35.5 92.6 80.1 273.0
08/05 07:00 5.3 91 6.31 4 4 6 1024.3 0 15.0 25.0 34.9 91.2 78.1 266.2
08/05 06:50 5 91 6.19 3.7 4 4 1024.3 0 14.8 24.9 34.6 90.2 76.8 261.5
08/05 06:40 4.6 91 6.03 3.3 2 4 1024.3 0 14.5 24.7 34.1 88.9 75.0 255.1
08/05 06:30 4 91 5.79 2.7 9 11 1024.2 0 14.0 24.5 33.3 86.9 72.3 245.5
08/05 06:20 3.8 92 5.78 2.6 7 9 1024.2 0 14.0 24.5 33.4 87.0 72.3 245.7
08/05 06:10 3.2 91 5.49 1.9 6 6 1024.2 0 13.4 24.2 32.4 84.5 68.9 233.6
08/05 06:00 3 88 5.24 1.2 4 6 1024 0 12.8 23.8 31.5 82.0 65.7 222.3
08/05 05:50 4.1 82 5.25 1.3 2 4 1023.8 0 12.8 23.5 31.1 80.9 64.9 219.6
08/05 05:40 5.5 82 5.76 2.7 9 11 1023.9 0 13.9 24.0 32.6 84.9 70.5 239.4
08/05 05:30 5.7 81 5.77 2.7 9 11 1023.8 0 13.9 24.0 32.5 84.8 70.4 239.3
08/05 05:20 5.7 81 5.77 2.7 9 11 1023.9 0 13.9 24.0 32.5 84.8 70.4 239.3
08/05 05:10 5.8 80 5.73 2.6 9 11 1023.9 0 13.8 23.9 32.3 84.3 69.8 237.1
08/05 05:00 6 80 5.81 2.8 11 15 1023.9 0 13.9 23.9 32.6 84.9 70.7 240.2
08/05 04:50 6.2 79 5.81 2.8 11 13 1023.9 0 13.9 23.9 32.5 84.7 70.5 239.6
08/05 04:40 5.9 80 5.77 2.7 13 13 1023.8 0 13.9 23.9 32.5 84.6 70.3 238.6
08/05 04:30 5.8 79 5.66 2.4 11 13 1023.7 0 13.6 23.8 32.1 83.5 68.9 233.8
08/05 04:20 6 79 5.74 2.6 11 13 1023.6 0 13.8 23.8 32.3 84.2 69.8 236.9
08/05 04:10 6 78 5.66 2.5 13 15 1023.6 0 13.6 23.7 32.0 83.3 68.7 233.2
08/05 04:00 5.7 80 5.7 2.5 11 13 1023.5 0 13.7 23.8 32.2 84.0 69.5 235.9
08/05 03:50 5.6 80 5.66 2.4 11 11 1023.4 0 13.6 23.8 32.1 83.7 69.0 234.3
08/05 03:40 5.5 80 5.62 2.3 9 9 1023.5 0 13.5 23.8 32.0 83.4 68.6 232.8
08/05 03:30 5.5 80 5.62 2.3 7 11 1023.6 0 13.5 23.8 32.0 83.4 68.6 232.8
08/05 03:20 5.6 79 5.59 2.3 9 11 1023.7 0 13.5 23.7 31.9 83.0 68.1 231.2
08/05 03:10 5.9 78 5.63 2.4 11 15 1023.6 0 13.6 23.7 31.9 83.1 68.4 232.1
08/05 03:00 5.8 79 5.66 2.4 11 15 1023.8 0 13.6 23.8 32.1 83.5 68.9 233.8
08/05 02:50 5.8 79 5.66 2.4 9 11 1023.9 0 13.6 23.8 32.1 83.5 68.9 233.9
08/05 02:40 5.7 79 5.63 2.4 11 15 1024 0 13.6 23.7 32.0 83.3 68.6 232.8
08/05 02:30 5.7 80 5.7 2.5 11 13 1023.9 0 13.7 23.8 32.3 84.1 69.5 236.0
08/05 02:20 5.4 81 5.66 2.4 9 13 1024 0 13.6 23.9 32.2 84.0 69.3 235.1
08/05 02:10 5.2 82 5.65 2.4 11 13 1024 0 13.6 23.9 32.3 84.1 69.3 235.2
08/05 02:00 5.2 81 5.58 2.2 9 9 1024 0 13.5 23.8 32.0 83.3 68.4 231.9
08/05 01:50 5.2 81 5.58 2.2 7 9 1024.1 0 13.5 23.8 32.0 83.3 68.4 231.9
08/05 01:40 5.2 81 5.58 2.2 7 9 1024.1 0 13.5 23.8 32.0 83.3 68.4 231.9
08/05 01:30 4.8 83 5.57 2.2 7 9 1024.3 0 13.5 23.9 32.1 83.7 68.6 232.7
08/05 01:20 4.2 84 5.42 1.7 7 7 1024.4 0 13.2 23.8 31.8 82.7 67.1 227.4
08/05 01:10 4.2 83 5.35 1.6 4 6 1024.4 0 13.0 23.7 31.5 81.9 66.2 224.2
08/05 01:00 4.8 80 5.37 1.7 4 6 1024.5 0 13.0 23.6 31.3 81.5 66.0 223.4
08/05 00:50 5.1 79 5.41 1.8 6 6 1024.5 0 13.1 23.6 31.4 81.7 66.2 224.4
08/05 00:40 5.4 77 5.38 1.7 6 6 1024.5 0 13.0 23.4 31.1 81.0 65.6 222.2
08/05 00:20 5.6 78 5.52 2.1 7 7 1024.6 0 13.3 23.6 31.6 82.3 67.3 228.1
08/05 00:10 5.7 77 5.48 2 6 6 1024.7 0 13.2 23.5 31.4 81.8 66.7 226.0
08/05 00:00 5.7 76 5.41 1.8 7 9 1024.6 0 13.1 23.4 31.1 81.0 65.7 222.7
07/05 23:50 5.9 76 5.48 2 7 7 1024.7 0 13.2 23.5 31.3 81.6 66.5 225.4
07/05 23:40 6.2 74 5.45 1.9 7 7 1024.7 0 13.2 23.3 31.1 81.0 65.8 223.2
07/05 23:30 6.4 72 5.37 1.7 7 11 1024.7 0 13.0 23.2 30.7 79.9 64.6 219.0
07/05 23:20 6.7 71 5.4 1.8 7 9 1024.7 0 13.0 23.1 30.7 79.9 64.8 219.5
07/05 23:10 7 70 5.43 1.9 9 11 1024.7 0 13.1 23.1 30.7 79.9 64.9 220.0
07/05 23:00 7.1 69 5.38 1.8 9 13 1024.7 0 13.0 23.0 30.5 79.3 64.2 217.5
07/05 22:50 7.4 67 5.33 1.7 9 13 1024.6 0 12.9 22.8 30.2 78.5 63.3 214.4
07/05 22:40 7.8 66 5.39 1.9 13 15 1024.7 0 13.0 22.8 30.3 78.7 63.7 216.1
07/05 22:30 7.8 66 5.39 1.9 11 17 1024.8 0 13.0 22.8 30.3 78.7 63.8 216.1
07/05 22:20 7.7 66 5.35 1.8 11 13 1024.8 0 12.9 22.8 30.1 78.4 63.3 214.6
07/05 22:10 7.3 68 5.38 1.8 11 13 1024.6 0 13.0 23.0 30.4 79.1 64.0 216.9
07/05 22:00 7.1 69 5.38 1.8 11 15 1024.8 0 13.0 23.0 30.5 79.3 64.2 217.5
07/05 21:50 7.1 69 5.38 1.8 9 11 1024.8 0 13.0 23.0 30.5 79.3 64.2 217.5
07/05 21:40 6.8 70 5.36 1.7 7 9 1024.7 0 12.9 23.1 30.5 79.4 64.2 217.4
07/05 21:30 7.2 68 5.34 1.7 11 17 1024.6 0 12.9 22.9 30.3 78.8 63.6 215.4
07/05 21:20 7 68 5.27 1.5 9 13 1024.6 0 12.7 22.9 30.1 78.3 62.9 212.8
07/05 21:10 7.4 66 5.25 1.5 7 9 1024.6 0 12.7 22.7 29.9 77.7 62.3 210.8
07/05 21:00 7.4 67 5.33 1.7 9 13 1024.4 0 12.9 22.8 30.2 78.5 63.3 214.4
07/05 20:50 7.2 67 5.26 1.5 9 11 1024.3 0 12.7 22.8 30.0 77.9 62.6 211.8
07/05 20:40 7.2 65 5.1 1.1 7 11 1024.4 0 12.4 22.5 29.4 76.3 60.5 204.6
07/05 20:30 7.5 64 5.13 1.1 6 9 1024.3 0 12.4 22.5 29.4 76.3 60.7 205.2
07/05 20:20 7.5 65 5.21 1.4 7 11 1024.1 0 12.6 22.6 29.7 77.1 61.7 208.7
07/05 20:10 7.8 64 5.23 1.4 11 15 1024.2 0 12.6 22.6 29.6 77.0 61.7 208.8
07/05 20:00 7.8 64 5.23 1.4 9 13 1024.2 0 12.6 22.6 29.6 77.0 61.7 208.8
07/05 19:50 7.9 63 5.18 1.3 7 9 1024.1 0 12.5 22.5 29.4 76.4 61.0 206.3

Last Refresh: 08-May-2026 12:10:20

Bureau of Meteorology